sensor_id;sensor_type;location;lat;lon;timestamp;pressure;altitude;pressure_sealevel;temperature;humidity
55705;BME280;41606;34.526;69.178;2023-02-04T00:06:56;82265.25;;;21.47;24.67
55705;BME280;41606;34.526;69.178;2023-02-04T00:28:44;82272.40;;;20.94;24.68
55705;BME280;41606;34.526;69.178;2023-02-04T00:36:01;82273.17;;;20.99;24.19
55705;BME280;41606;34.526;69.178;2023-02-04T00:43:17;82271.43;;;21.35;24.01
55705;BME280;41606;34.526;69.178;2023-02-04T00:50:33;82273.45;;;21.30;24.31
55705;BME280;41606;34.526;69.178;2023-02-04T00:52:58;82270.80;;;21.45;24.49
55705;BME280;41606;34.526;69.178;2023-02-04T00:55:23;82274.43;;;20.95;24.44
55705;BME280;41606;34.526;69.178;2023-02-04T01:05:06;82272.71;;;21.08;24.26
55705;BME280;41606;34.526;69.178;2023-02-04T01:09:56;82275.53;;;21.13;23.60
55705;BME280;41606;34.526;69.178;2023-02-04T01:22:03;82285.48;;;21.04;24.35
55705;BME280;41606;34.526;69.178;2023-02-04T01:26:54;82291.92;;;20.92;24.69
55705;BME280;41606;34.526;69.178;2023-02-04T01:31:45;82299.10;;;21.03;24.29
55705;BME280;41606;34.526;69.178;2023-02-04T01:36:36;82302.75;;;21.17;24.45
55705;BME280;41606;34.526;69.178;2023-02-04T01:39:01;82306.37;;;21.02;24.51
55705;BME280;41606;34.526;69.178;2023-02-04T01:43:53;82305.43;;;21.19;23.53
55705;BME280;41606;34.526;69.178;2023-02-04T01:48:44;82311.05;;;21.15;24.07
55705;BME280;41606;34.526;69.178;2023-02-04T01:51:11;82314.85;;;21.19;24.20
55705;BME280;41606;34.526;69.178;2023-02-04T01:53:35;82311.56;;;20.83;24.30
55705;BME280;41606;34.526;69.178;2023-02-04T01:56:16;82314.31;;;20.95;24.45
55705;BME280;41606;34.526;69.178;2023-02-04T02:00:51;82315.70;;;20.73;24.41
55705;BME280;41606;34.526;69.178;2023-02-04T02:29:56;82348.19;;;20.89;24.73
55705;BME280;41606;34.526;69.178;2023-02-04T02:34:48;82355.00;;;20.88;24.79
55705;BME280;41606;34.526;69.178;2023-02-04T02:39:39;82356.06;;;20.80;25.20
55705;BME280;41606;34.526;69.178;2023-02-04T02:44:30;82357.24;;;20.96;25.05
55705;BME280;41606;34.526;69.178;2023-02-04T02:46:55;82360.62;;;20.72;25.20
55705;BME280;41606;34.526;69.178;2023-02-04T02:49:20;82362.03;;;20.85;24.83
55705;BME280;41606;34.526;69.178;2023-02-04T03:08:43;82380.02;;;21.23;23.68
55705;BME280;41606;34.526;69.178;2023-02-04T03:11:08;82382.91;;;21.20;23.83
55705;BME280;41606;34.526;69.178;2023-02-04T03:16:00;82386.69;;;20.94;24.39
55705;BME280;41606;34.526;69.178;2023-02-04T03:20:51;82398.64;;;21.03;24.15
55705;BME280;41606;34.526;69.178;2023-02-04T03:23:15;82404.60;;;21.06;23.76
55705;BME280;41606;34.526;69.178;2023-02-04T03:25:41;82412.74;;;21.38;24.65
55705;BME280;41606;34.526;69.178;2023-02-04T03:32:58;82420.58;;;21.18;24.24
55705;BME280;41606;34.526;69.178;2023-02-04T03:35:23;82422.37;;;21.40;24.62
55705;BME280;41606;34.526;69.178;2023-02-04T03:37:49;82424.56;;;20.92;23.88
55705;BME280;41606;34.526;69.178;2023-02-04T03:40:15;82425.27;;;21.19;24.43
55705;BME280;41606;34.526;69.178;2023-02-04T03:42:40;82429.43;;;20.67;23.75
55705;BME280;41606;34.526;69.178;2023-02-04T03:45:06;82428.48;;;20.90;23.58
55705;BME280;41606;34.526;69.178;2023-02-04T04:04:28;82450.59;;;20.40;24.24
55705;BME280;41606;34.526;69.178;2023-02-04T04:23:52;82480.46;;;20.66;25.72
55705;BME280;41606;34.526;69.178;2023-02-04T04:26:17;82475.06;;;20.50;25.72
55705;BME280;41606;34.526;69.178;2023-02-04T04:31:08;82477.61;;;21.26;24.91
55705;BME280;41606;34.526;69.178;2023-02-04T04:33:33;82480.67;;;20.81;25.08
55705;BME280;41606;34.526;69.178;2023-02-04T04:35:58;82482.00;;;20.88;24.84
55705;BME280;41606;34.526;69.178;2023-02-04T04:38:25;82480.52;;;21.06;24.65
55705;BME280;41606;34.526;69.178;2023-02-04T04:40:49;82485.22;;;21.33;24.86
55705;BME280;41606;34.526;69.178;2023-02-04T04:55:22;82488.28;;;21.16;24.01
55705;BME280;41606;34.526;69.178;2023-02-04T04:57:53;82491.48;;;21.66;24.39
55705;BME280;41606;34.526;69.178;2023-02-04T05:02:38;82485.73;;;21.10;24.59
55705;BME280;41606;34.526;69.178;2023-02-04T05:05:03;82487.84;;;21.26;24.82
55705;BME280;41606;34.526;69.178;2023-02-04T05:09:54;82481.98;;;21.25;24.35
55705;BME280;41606;34.526;69.178;2023-02-04T05:12:19;82488.81;;;21.38;23.77
55705;BME280;41606;34.526;69.178;2023-02-04T05:14:44;82492.07;;;21.25;24.20
55705;BME280;41606;34.526;69.178;2023-02-04T05:19:35;82487.33;;;21.44;23.90
55705;BME280;41606;34.526;69.178;2023-02-04T05:24:26;82491.42;;;21.19;23.98
55705;BME280;41606;34.526;69.178;2023-02-04T05:31:42;82492.18;;;21.33;25.22
55705;BME280;41606;34.526;69.178;2023-02-04T05:36:34;82487.52;;;21.37;24.05
55705;BME280;41606;34.526;69.178;2023-02-04T05:48:48;82485.40;;;21.46;23.76
55705;BME280;41606;34.526;69.178;2023-02-04T05:51:06;82487.08;;;20.78;23.43
55705;BME280;41606;34.526;69.178;2023-02-04T05:53:32;82487.67;;;21.47;24.67
55705;BME280;41606;34.526;69.178;2023-02-04T06:00:49;82491.23;;;20.34;24.61
55705;BME280;41606;34.526;69.178;2023-02-04T06:47:01;82461.23;;;20.37;24.48
55705;BME280;41606;34.526;69.178;2023-02-04T06:49:19;82456.57;;;20.46;23.95
55705;BME280;41606;34.526;69.178;2023-02-04T06:56:34;82447.88;;;20.72;23.94
55705;BME280;41606;34.526;69.178;2023-02-04T06:59:00;82442.50;;;21.35;24.53
55705;BME280;41606;34.526;69.178;2023-02-04T07:03:52;82430.65;;;21.21;24.43
55705;BME280;41606;34.526;69.178;2023-02-04T07:20:48;82410.02;;;20.47;24.11
55705;BME280;41606;34.526;69.178;2023-02-04T07:23:14;82407.03;;;20.47;24.28
55705;BME280;41606;34.526;69.178;2023-02-04T07:25:39;82402.63;;;20.43;24.11
55705;BME280;41606;34.526;69.178;2023-02-04T07:28:06;82400.23;;;20.29;24.33
55705;BME280;41606;34.526;69.178;2023-02-04T07:37:47;82391.96;;;20.63;24.03
55705;BME280;41606;34.526;69.178;2023-02-04T07:40:16;82390.56;;;20.79;24.83
55705;BME280;41606;34.526;69.178;2023-02-04T07:42:37;82392.33;;;21.36;24.20
55705;BME280;41606;34.526;69.178;2023-02-04T07:47:28;82382.23;;;20.69;24.53
55705;BME280;41606;34.526;69.178;2023-02-04T07:50:02;82375.87;;;20.91;24.25
55705;BME280;41606;34.526;69.178;2023-02-04T07:54:49;82367.46;;;21.12;25.54
55705;BME280;41606;34.526;69.178;2023-02-04T07:57:10;82369.14;;;21.08;24.76
55705;BME280;41606;34.526;69.178;2023-02-04T07:59:35;82366.56;;;20.71;28.99
55705;BME280;41606;34.526;69.178;2023-02-04T08:04:31;82355.50;;;21.27;25.64
55705;BME280;41606;34.526;69.178;2023-02-04T08:06:51;82355.20;;;20.78;25.81
55705;BME280;41606;34.526;69.178;2023-02-04T08:09:16;82352.61;;;20.60;25.79
55705;BME280;41606;34.526;69.178;2023-02-04T08:21:27;82342.25;;;19.35;27.03
55705;BME280;41606;34.526;69.178;2023-02-04T08:48:09;82323.98;;;20.32;26.51
55705;BME280;41606;34.526;69.178;2023-02-04T08:50:40;82324.14;;;19.96;26.51
55705;BME280;41606;34.526;69.178;2023-02-04T09:17:22;82316.19;;;20.12;26.14
55705;BME280;41606;34.526;69.178;2023-02-04T09:29:15;82320.68;;;20.24;27.44
55705;BME280;41606;34.526;69.178;2023-02-04T09:31:42;82322.75;;;20.12;26.27
55705;BME280;41606;34.526;69.178;2023-02-04T09:36:46;82325.68;;;20.53;25.90
55705;BME280;41606;34.526;69.178;2023-02-04T09:39:02;82325.82;;;20.35;26.28
55705;BME280;41606;34.526;69.178;2023-02-04T09:41:27;82324.07;;;20.33;25.91
55705;BME280;41606;34.526;69.178;2023-02-04T10:03:15;82314.63;;;20.08;26.62
55705;BME280;41606;34.526;69.178;2023-02-04T10:05:36;82310.40;;;19.92;26.15
55705;BME280;41606;34.526;69.178;2023-02-04T10:08:01;82310.67;;;20.38;25.66
55705;BME280;41606;34.526;69.178;2023-02-04T10:10:27;82311.85;;;20.60;26.27
55705;BME280;41606;34.526;69.178;2023-02-04T10:13:03;82310.06;;;20.58;25.93
55705;BME280;41606;34.526;69.178;2023-02-04T10:15:24;82308.28;;;20.41;26.06
55705;BME280;41606;34.526;69.178;2023-02-04T10:17:57;82306.94;;;19.47;26.41
55705;BME280;41606;34.526;69.178;2023-02-04T10:22:36;82300.74;;;21.21;25.39
55705;BME280;41606;34.526;69.178;2023-02-04T10:25:01;82300.29;;;21.03;25.61
55705;BME280;41606;34.526;69.178;2023-02-04T10:27:27;82307.18;;;20.80;24.99
55705;BME280;41606;34.526;69.178;2023-02-04T10:29:57;82303.32;;;21.21;25.55
55705;BME280;41606;34.526;69.178;2023-02-04T10:32:27;82302.73;;;20.41;24.87
55705;BME280;41606;34.526;69.178;2023-02-04T10:34:44;82301.12;;;20.57;25.00
55705;BME280;41606;34.526;69.178;2023-02-04T10:37:16;82298.88;;;21.03;24.52
55705;BME280;41606;34.526;69.178;2023-02-04T10:39:41;82298.41;;;21.20;24.91
55705;BME280;41606;34.526;69.178;2023-02-04T10:41:59;82297.77;;;21.01;25.12
55705;BME280;41606;34.526;69.178;2023-02-04T10:44:28;82296.20;;;20.71;24.67
55705;BME280;41606;34.526;69.178;2023-02-04T10:47:00;82294.19;;;20.95;25.08
55705;BME280;41606;34.526;69.178;2023-02-04T10:49:21;82292.71;;;20.91;25.15
55705;BME280;41606;34.526;69.178;2023-02-04T10:51:40;82292.94;;;20.88;24.50
55705;BME280;41606;34.526;69.178;2023-02-04T10:54:12;82297.80;;;20.83;24.62
55705;BME280;41606;34.526;69.178;2023-02-04T10:56:36;82292.58;;;21.18;25.45
55705;BME280;41606;34.526;69.178;2023-02-04T10:58:56;82295.76;;;20.76;24.51
55705;BME280;41606;34.526;69.178;2023-02-04T11:01:21;82290.95;;;21.04;24.98
55705;BME280;41606;34.526;69.178;2023-02-04T11:03:48;82294.46;;;20.97;24.71
55705;BME280;41606;34.526;69.178;2023-02-04T11:06:14;82294.95;;;20.94;25.13
55705;BME280;41606;34.526;69.178;2023-02-04T11:08:37;82290.16;;;20.99;24.91
55705;BME280;41606;34.526;69.178;2023-02-04T11:11:05;82290.89;;;20.94;24.96
55705;BME280;41606;34.526;69.178;2023-02-04T11:13:39;82289.25;;;20.88;25.16
55705;BME280;41606;34.526;69.178;2023-02-04T11:18:28;82287.52;;;20.52;24.30
55705;BME280;41606;34.526;69.178;2023-02-04T11:25:48;82283.71;;;21.42;24.06
55705;BME280;41606;34.526;69.178;2023-02-04T11:30:31;82287.31;;;21.49;23.97
55705;BME280;41606;34.526;69.178;2023-02-04T11:33:01;82283.93;;;21.29;24.05
55705;BME280;41606;34.526;69.178;2023-02-04T11:35:25;82287.17;;;21.17;25.16
55705;BME280;41606;34.526;69.178;2023-02-04T11:42:39;82282.17;;;21.50;24.10
55705;BME280;41606;34.526;69.178;2023-02-04T11:45:05;82278.99;;;21.34;24.73
55705;BME280;41606;34.526;69.178;2023-02-04T11:58:37;82277.87;;;19.80;26.26
55705;BME280;41606;34.526;69.178;2023-02-04T12:18:58;82274.34;;;21.09;25.00
55705;BME280;41606;34.526;69.178;2023-02-04T12:23:45;82273.59;;;20.69;24.84
55705;BME280;41606;34.526;69.178;2023-02-04T12:35:52;82275.39;;;21.01;24.51
55705;BME280;41606;34.526;69.178;2023-02-04T12:43:09;82280.58;;;20.97;24.88
55705;BME280;41606;34.526;69.178;2023-02-04T12:48:01;82283.30;;;20.92;24.10
55705;BME280;41606;34.526;69.178;2023-02-04T12:52:51;82288.16;;;21.09;23.95
55705;BME280;41606;34.526;69.178;2023-02-04T12:57:41;82286.20;;;21.35;24.23
55705;BME280;41606;34.526;69.178;2023-02-04T13:00:10;82286.45;;;21.42;24.56
55705;BME280;41606;34.526;69.178;2023-02-04T13:31:50;82309.87;;;21.30;24.09
55705;BME280;41606;34.526;69.178;2023-02-04T13:34:08;82308.89;;;21.03;25.11
55705;BME280;41606;34.526;69.178;2023-02-04T13:38:55;82306.84;;;20.90;24.62
55705;BME280;41606;34.526;69.178;2023-02-04T13:41:31;82304.54;;;21.19;23.98
55705;BME280;41606;34.526;69.178;2023-02-04T13:43:44;82307.40;;;20.93;23.93
55705;BME280;41606;34.526;69.178;2023-02-04T13:48:35;82304.39;;;21.23;24.52
55705;BME280;41606;34.526;69.178;2023-02-04T13:51:10;82305.78;;;21.29;24.52
55705;BME280;41606;34.526;69.178;2023-02-04T13:55:51;82305.03;;;21.28;24.00
55705;BME280;41606;34.526;69.178;2023-02-04T14:00:44;82306.48;;;21.37;24.18
55705;BME280;41606;34.526;69.178;2023-02-04T14:03:11;82307.29;;;21.21;24.04
55705;BME280;41606;34.526;69.178;2023-02-04T14:08:02;82309.01;;;21.40;24.16
55705;BME280;41606;34.526;69.178;2023-02-04T14:12:48;82311.35;;;21.39;23.81
55705;BME280;41606;34.526;69.178;2023-02-04T14:15:14;82312.85;;;21.57;22.72
55705;BME280;41606;34.526;69.178;2023-02-04T14:20:05;82319.18;;;21.36;23.52
55705;BME280;41606;34.526;69.178;2023-02-04T14:24:57;82322.03;;;21.17;23.80
55705;BME280;41606;34.526;69.178;2023-02-04T14:29:59;82321.56;;;21.26;23.99
55705;BME280;41606;34.526;69.178;2023-02-04T14:32:14;82322.59;;;21.28;23.12
55705;BME280;41606;34.526;69.178;2023-02-04T14:34:39;82319.45;;;21.47;23.81
55705;BME280;41606;34.526;69.178;2023-02-04T14:37:03;82322.19;;;21.26;23.88
55705;BME280;41606;34.526;69.178;2023-02-04T14:41:55;82331.79;;;21.29;24.21
55705;BME280;41606;34.526;69.178;2023-02-04T14:46:44;82331.19;;;20.94;23.87
55705;BME280;41606;34.526;69.178;2023-02-04T14:49:10;82327.58;;;21.22;24.00
55705;BME280;41606;34.526;69.178;2023-02-04T14:54:00;82325.59;;;21.04;23.66
55705;BME280;41606;34.526;69.178;2023-02-04T14:58:51;82326.30;;;21.58;23.93
55705;BME280;41606;34.526;69.178;2023-02-04T15:01:16;82330.03;;;21.21;24.13
55705;BME280;41606;34.526;69.178;2023-02-04T15:03:41;82331.41;;;20.84;24.29
55705;BME280;41606;34.526;69.178;2023-02-04T15:06:07;82330.28;;;20.86;24.22
55705;BME280;41606;34.526;69.178;2023-02-04T15:13:24;82322.60;;;21.22;23.93
55705;BME280;41606;34.526;69.178;2023-02-04T15:18:15;82328.77;;;21.14;24.15
55705;BME280;41606;34.526;69.178;2023-02-04T15:28:01;82325.78;;;21.52;24.09
55705;BME280;41606;34.526;69.178;2023-02-04T15:49:46;82343.98;;;21.15;24.46
55705;BME280;41606;34.526;69.178;2023-02-04T15:52:11;82345.70;;;21.46;24.51
55705;BME280;41606;34.526;69.178;2023-02-04T15:59:27;82348.07;;;20.90;24.50
55705;BME280;41606;34.526;69.178;2023-02-04T16:09:09;82355.06;;;21.39;24.59
55705;BME280;41606;34.526;69.178;2023-02-04T16:23:42;82367.88;;;21.14;24.23
55705;BME280;41606;34.526;69.178;2023-02-04T16:26:08;82368.87;;;21.15;24.54
55705;BME280;41606;34.526;69.178;2023-02-04T16:30:58;82365.45;;;21.08;24.49
55705;BME280;41606;34.526;69.178;2023-02-04T16:36:00;82361.80;;;21.21;24.10
55705;BME280;41606;34.526;69.178;2023-02-04T16:38:14;82364.02;;;20.98;23.97
55705;BME280;41606;34.526;69.178;2023-02-04T16:43:06;82368.21;;;21.06;24.22
55705;BME280;41606;34.526;69.178;2023-02-04T16:48:06;82371.96;;;20.95;24.60
55705;BME280;41606;34.526;69.178;2023-02-04T16:52:57;82369.66;;;20.45;24.66
55705;BME280;41606;34.526;69.178;2023-02-04T16:55:23;82367.37;;;21.33;24.18
55705;BME280;41606;34.526;69.178;2023-02-04T17:00:11;82366.60;;;21.28;23.66
55705;BME280;41606;34.526;69.178;2023-02-04T17:02:30;82368.84;;;20.24;25.77
55705;BME280;41606;34.526;69.178;2023-02-04T17:04:55;82368.59;;;20.51;25.53
55705;BME280;41606;34.526;69.178;2023-02-04T17:09:51;82372.98;;;20.90;24.56
55705;BME280;41606;34.526;69.178;2023-02-04T17:14:39;82377.39;;;21.40;24.78
55705;BME280;41606;34.526;69.178;2023-02-04T17:17:02;82375.19;;;21.43;24.83
55705;BME280;41606;34.526;69.178;2023-02-04T17:21:57;82375.55;;;21.43;24.70
55705;BME280;41606;34.526;69.178;2023-02-04T17:26:48;82379.43;;;21.07;24.85
55705;BME280;41606;34.526;69.178;2023-02-04T17:29:11;82382.64;;;21.59;24.76
55705;BME280;41606;34.526;69.178;2023-02-04T17:34:00;82389.60;;;21.26;25.02
55705;BME280;41606;34.526;69.178;2023-02-04T17:38:51;82383.41;;;21.60;24.87
55705;BME280;41606;34.526;69.178;2023-02-04T17:43:42;82381.24;;;21.56;24.78
55705;BME280;41606;34.526;69.178;2023-02-04T17:46:08;82381.36;;;21.64;25.37
55705;BME280;41606;34.526;69.178;2023-02-04T17:50:59;82375.16;;;21.31;25.41
55705;BME280;41606;34.526;69.178;2023-02-04T17:55:50;82380.96;;;21.11;25.35
55705;BME280;41606;34.526;69.178;2023-02-04T17:58:18;82381.82;;;21.54;25.17
55705;BME280;41606;34.526;69.178;2023-02-04T18:00:44;82376.26;;;21.79;25.28
55705;BME280;41606;34.526;69.178;2023-02-04T18:03:11;82374.62;;;21.59;25.29
55705;BME280;41606;34.526;69.178;2023-02-04T18:08:00;82378.12;;;21.57;25.26
55705;BME280;41606;34.526;69.178;2023-02-04T18:12:49;82370.71;;;21.78;24.75
55705;BME280;41606;34.526;69.178;2023-02-04T18:24:55;82365.21;;;21.97;24.81
55705;BME280;41606;34.526;69.178;2023-02-04T18:29:48;82361.41;;;21.61;25.64
55705;BME280;41606;34.526;69.178;2023-02-04T18:32:17;82359.14;;;21.82;25.50
55705;BME280;41606;34.526;69.178;2023-02-04T18:39:29;82350.61;;;21.71;25.77
55705;BME280;41606;34.526;69.178;2023-02-04T18:41:53;82345.76;;;21.77;24.80
55705;BME280;41606;34.526;69.178;2023-02-04T18:46:46;82345.84;;;21.46;25.07
55705;BME280;41606;34.526;69.178;2023-02-04T18:58:52;82329.79;;;21.96;25.24
55705;BME280;41606;34.526;69.178;2023-02-04T19:03:47;82327.90;;;21.56;24.91
55705;BME280;41606;34.526;69.178;2023-02-04T19:10:59;82318.17;;;22.07;25.39
55705;BME280;41606;34.526;69.178;2023-02-04T19:15:56;82316.99;;;21.78;24.55
55705;BME280;41606;34.526;69.178;2023-02-04T19:20:39;82313.12;;;21.69;24.95
55705;BME280;41606;34.526;69.178;2023-02-04T19:23:13;82312.48;;;21.81;25.41
55705;BME280;41606;34.526;69.178;2023-02-04T19:27:57;82310.41;;;21.10;25.79
55705;BME280;41606;34.526;69.178;2023-02-04T19:40:02;82296.69;;;21.99;25.12
55705;BME280;41606;34.526;69.178;2023-02-04T19:42:30;82294.04;;;21.76;24.72
55705;BME280;41606;34.526;69.178;2023-02-04T19:47:23;82283.53;;;21.97;24.20
55705;BME280;41606;34.526;69.178;2023-02-04T19:52:23;82282.04;;;21.92;24.92
55705;BME280;41606;34.526;69.178;2023-02-04T20:04:19;82278.19;;;21.96;25.04
55705;BME280;41606;34.526;69.178;2023-02-04T20:09:13;82275.12;;;21.78;24.36
55705;BME280;41606;34.526;69.178;2023-02-04T20:11:38;82275.72;;;21.54;24.91
55705;BME280;41606;34.526;69.178;2023-02-04T20:21:14;82273.29;;;21.48;25.04
55705;BME280;41606;34.526;69.178;2023-02-04T20:30:58;82262.08;;;21.56;24.87
55705;BME280;41606;34.526;69.178;2023-02-04T20:43:10;82248.78;;;21.92;25.01
55705;BME280;41606;34.526;69.178;2023-02-04T20:45:34;82249.63;;;21.73;24.89
55705;BME280;41606;34.526;69.178;2023-02-04T20:50:38;82241.54;;;21.78;24.84
55705;BME280;41606;34.526;69.178;2023-02-04T20:55:23;82243.47;;;21.70;24.66
55705;BME280;41606;34.526;69.178;2023-02-04T20:57:38;82244.34;;;22.28;24.28
55705;BME280;41606;34.526;69.178;2023-02-04T21:00:12;82243.88;;;22.20;24.46
55705;BME280;41606;34.526;69.178;2023-02-04T21:02:29;82244.40;;;21.62;24.41
55705;BME280;41606;34.526;69.178;2023-02-04T21:04:53;82239.91;;;22.05;24.33
55705;BME280;41606;34.526;69.178;2023-02-04T21:07:20;82244.35;;;21.73;24.24
55705;BME280;41606;34.526;69.178;2023-02-04T21:09:44;82242.29;;;22.24;23.79
55705;BME280;41606;34.526;69.178;2023-02-04T21:12:09;82237.54;;;21.98;24.26
55705;BME280;41606;34.526;69.178;2023-02-04T21:14:35;82240.84;;;21.87;23.88
55705;BME280;41606;34.526;69.178;2023-02-04T21:24:16;82230.70;;;21.87;23.76
55705;BME280;41606;34.526;69.178;2023-02-04T21:33:57;82224.43;;;21.80;24.43
55705;BME280;41606;34.526;69.178;2023-02-04T21:43:39;82221.75;;;21.75;23.64
55705;BME280;41606;34.526;69.178;2023-02-04T21:46:05;82215.78;;;21.80;23.46
55705;BME280;41606;34.526;69.178;2023-02-04T21:48:30;82210.52;;;21.95;24.39
55705;BME280;41606;34.526;69.178;2023-02-04T21:50:55;82206.62;;;21.87;23.04
55705;BME280;41606;34.526;69.178;2023-02-04T21:55:47;82206.52;;;21.64;24.10
55705;BME280;41606;34.526;69.178;2023-02-04T21:58:12;82209.31;;;21.91;24.34
55705;BME280;41606;34.526;69.178;2023-02-04T22:03:02;82206.23;;;22.00;23.87
55705;BME280;41606;34.526;69.178;2023-02-04T22:05:28;82209.33;;;21.69;23.82
55705;BME280;41606;34.526;69.178;2023-02-04T22:24:51;82178.36;;;21.30;24.17
55705;BME280;41606;34.526;69.178;2023-02-04T22:29:41;82173.19;;;21.97;24.40
55705;BME280;41606;34.526;69.178;2023-02-04T22:44:14;82168.43;;;21.81;23.65
55705;BME280;41606;34.526;69.178;2023-02-04T22:49:05;82160.48;;;21.61;23.87
55705;BME280;41606;34.526;69.178;2023-02-04T22:51:30;82153.34;;;22.09;23.25
55705;BME280;41606;34.526;69.178;2023-02-04T22:53:56;82149.86;;;22.09;23.13
55705;BME280;41606;34.526;69.178;2023-02-04T23:08:28;82137.61;;;21.35;24.21
55705;BME280;41606;34.526;69.178;2023-02-04T23:20:35;82135.98;;;21.91;23.32
55705;BME280;41606;34.526;69.178;2023-02-04T23:27:52;82134.93;;;21.59;23.14
55705;BME280;41606;34.526;69.178;2023-02-04T23:32:42;82132.29;;;21.59;23.12
55705;BME280;41606;34.526;69.178;2023-02-04T23:35:08;82131.85;;;21.76;23.49
55705;BME280;41606;34.526;69.178;2023-02-04T23:49:40;82136.30;;;21.89;22.65
55705;BME280;41606;34.526;69.178;2023-02-04T23:52:10;82139.35;;;21.57;23.98
55705;BME280;41606;34.526;69.178;2023-02-04T23:56:56;82143.56;;;21.59;23.93
